createdAt,value
2019-06-20T00:01:13.095Z,17.80
2019-06-20T00:03:58.084Z,17.90
2019-06-20T00:06:43.096Z,17.90
2019-06-20T00:09:27.921Z,18.00
2019-06-20T00:12:12.693Z,17.90
2019-06-20T00:14:57.422Z,17.90
2019-06-20T00:17:42.619Z,17.90
2019-06-20T00:20:27.925Z,17.90
2019-06-20T00:23:12.702Z,17.70
2019-06-20T00:25:57.527Z,17.60
2019-06-20T00:28:42.448Z,17.60
2019-06-20T00:31:27.214Z,17.70
2019-06-20T00:34:11.839Z,17.70
2019-06-20T00:36:56.653Z,17.70
2019-06-20T00:39:41.461Z,17.70
2019-06-20T00:42:26.635Z,17.70
2019-06-20T00:45:12.205Z,17.80
2019-06-20T00:47:57.898Z,17.70
2019-06-20T00:50:43.232Z,17.70
2019-06-20T00:53:28.440Z,17.70
2019-06-20T00:56:13.413Z,17.80
2019-06-20T00:58:58.263Z,17.70
2019-06-20T01:01:43.358Z,17.70
2019-06-20T01:04:27.958Z,17.80
2019-06-20T01:07:12.899Z,17.80
2019-06-20T01:09:58.123Z,17.80
2019-06-20T01:12:42.940Z,17.70
2019-06-20T01:15:27.849Z,17.70
2019-06-20T01:18:13.197Z,17.70
2019-06-20T01:20:58.634Z,17.70
2019-06-20T01:23:44.180Z,17.80
2019-06-20T01:26:29.360Z,17.70
2019-06-20T01:29:14.396Z,17.60
2019-06-20T01:31:59.608Z,17.50
2019-06-20T01:34:44.565Z,17.40
2019-06-20T01:37:29.324Z,17.30
2019-06-20T01:40:14.479Z,17.30
2019-06-20T01:43:00.342Z,17.30
2019-06-20T01:45:46.336Z,17.20
2019-06-20T01:48:30.999Z,17.20
2019-06-20T01:51:17.409Z,17.20
2019-06-20T01:54:03.153Z,17.20
2019-06-20T01:56:48.114Z,17.20
2019-06-20T01:59:33.028Z,17.20
2019-06-20T02:02:18.000Z,17.20
2019-06-20T02:05:06.949Z,17.20
2019-06-20T02:07:51.887Z,17.20
2019-06-20T02:10:36.749Z,17.20
2019-06-20T02:13:21.721Z,17.20
2019-06-20T02:16:06.664Z,17.20
2019-06-20T02:18:51.304Z,17.20
2019-06-20T02:21:36.083Z,17.30
2019-06-20T02:24:21.667Z,17.30
2019-06-20T02:27:06.683Z,17.20
2019-06-20T02:29:51.709Z,17.20
2019-06-20T02:32:36.627Z,17.10
2019-06-20T02:35:21.867Z,17.10
2019-06-20T02:38:07.034Z,17.00
2019-06-20T02:40:51.763Z,17.00
2019-06-20T02:43:37.504Z,16.90
2019-06-20T02:46:22.801Z,17.00
2019-06-20T02:49:07.412Z,17.00
2019-06-20T02:51:52.562Z,17.10
2019-06-20T02:54:37.830Z,17.10
2019-06-20T02:57:22.495Z,17.00
2019-06-20T03:00:08.308Z,17.00
2019-06-20T03:02:54.489Z,16.90
2019-06-20T03:05:39.441Z,16.90
2019-06-20T03:08:25.708Z,16.90
2019-06-20T03:11:10.940Z,16.90
2019-06-20T03:13:55.538Z,16.90
2019-06-20T03:16:41.789Z,16.80
2019-06-20T03:19:26.519Z,16.90
2019-06-20T03:22:11.331Z,17.00
2019-06-20T03:24:56.749Z,17.00
2019-06-20T03:27:43.327Z,17.10
2019-06-20T03:30:28.468Z,17.10
2019-06-20T03:33:13.480Z,17.10
2019-06-20T03:35:58.375Z,17.10
2019-06-20T03:38:43.548Z,17.10
2019-06-20T03:41:28.470Z,17.10
2019-06-20T03:44:13.354Z,17.10
2019-06-20T03:46:58.202Z,17.10
2019-06-20T03:49:42.954Z,17.20
2019-06-20T03:52:27.894Z,17.30
2019-06-20T03:55:13.176Z,17.40
2019-06-20T03:57:59.493Z,17.60
2019-06-20T04:00:44.385Z,17.70
2019-06-20T04:03:29.255Z,17.70
2019-06-20T04:06:14.005Z,17.90
2019-06-20T04:08:59.127Z,18.00
2019-06-20T04:11:43.798Z,18.00
2019-06-20T04:14:28.412Z,18.20
2019-06-20T04:17:13.582Z,18.20
2019-06-20T04:19:58.682Z,18.20
2019-06-20T04:22:43.698Z,18.30
2019-06-20T04:25:28.490Z,18.30
2019-06-20T04:28:13.552Z,18.30
2019-06-20T04:30:58.227Z,18.40
2019-06-20T04:33:43.181Z,18.40
2019-06-20T04:36:28.055Z,18.40
2019-06-20T04:39:19.116Z,18.40
2019-06-20T04:41:59.963Z,18.50
2019-06-20T04:44:44.503Z,18.40
2019-06-20T04:47:29.453Z,18.40
2019-06-20T04:50:14.318Z,18.50
2019-06-20T04:52:59.198Z,18.50
2019-06-20T04:55:44.143Z,18.50
2019-06-20T04:58:28.740Z,18.60
2019-06-20T05:01:13.984Z,18.60
2019-06-20T05:03:58.897Z,18.60
2019-06-20T05:06:47.462Z,18.60
2019-06-20T05:09:32.339Z,18.70
2019-06-20T05:12:17.052Z,18.70
2019-06-20T05:15:03.395Z,18.80
2019-06-20T05:17:48.281Z,18.70
2019-06-20T05:20:33.491Z,18.70
2019-06-20T05:23:18.737Z,18.70
2019-06-20T05:26:03.753Z,18.70
2019-06-20T05:28:48.696Z,18.70
2019-06-20T05:31:33.557Z,18.70
2019-06-20T05:34:18.326Z,18.70
2019-06-20T05:37:03.027Z,18.70
2019-06-20T05:39:47.642Z,18.70
2019-06-20T05:42:32.889Z,18.80
2019-06-20T05:45:18.264Z,18.80
2019-06-20T05:48:03.997Z,18.80
2019-06-20T05:50:48.855Z,18.80
2019-06-20T05:53:33.509Z,18.80
2019-06-20T05:56:18.424Z,18.90
2019-06-20T05:59:03.381Z,18.90
2019-06-20T06:01:48.498Z,18.90
2019-06-20T06:04:33.554Z,19.00
2019-06-20T06:07:19.079Z,19.10
2019-06-20T06:10:05.985Z,19.20
2019-06-20T06:12:51.140Z,19.30
2019-06-20T06:15:36.192Z,19.40
2019-06-20T06:18:21.057Z,19.40
2019-06-20T06:21:06.146Z,19.50
2019-06-20T06:23:51.618Z,19.60
2019-06-20T06:26:36.638Z,19.70
2019-06-20T06:29:21.439Z,19.80
2019-06-20T06:32:06.353Z,19.90
2019-06-20T06:34:51.171Z,20.00
2019-06-20T06:37:35.953Z,20.20
2019-06-20T06:40:21.690Z,20.20
2019-06-20T06:43:06.378Z,20.30
2019-06-20T06:45:51.447Z,20.30
2019-06-20T06:48:36.583Z,20.20
2019-06-20T06:51:21.884Z,20.10
2019-06-20T06:54:06.987Z,20.00
2019-06-20T06:56:51.777Z,20.00
2019-06-20T06:59:36.653Z,20.00
2019-06-20T07:02:22.116Z,20.10
2019-06-20T07:05:07.998Z,20.20
2019-06-20T07:07:53.706Z,20.20
2019-06-20T07:10:39.168Z,20.20
2019-06-20T07:13:24.377Z,20.20
2019-06-20T07:16:10.789Z,20.20
2019-06-20T07:18:55.505Z,20.30
2019-06-20T07:21:41.081Z,20.40
2019-06-20T07:24:25.814Z,20.40
2019-06-20T07:27:10.539Z,20.50
2019-06-20T07:29:55.230Z,20.70
2019-06-20T07:32:40.094Z,20.90
2019-06-20T07:35:25.297Z,21.00
2019-06-20T07:38:10.048Z,21.00
2019-06-20T07:40:54.949Z,21.00
2019-06-20T07:43:39.762Z,21.10
2019-06-20T07:46:26.217Z,21.30
2019-06-20T07:49:11.391Z,21.30
2019-06-20T07:51:56.108Z,21.10
2019-06-20T07:54:41.094Z,21.00
2019-06-20T07:57:26.846Z,21.00
2019-06-20T08:00:12.796Z,21.00
2019-06-20T08:02:58.072Z,21.00
2019-06-20T08:05:42.796Z,21.00
2019-06-20T08:08:27.567Z,21.00
2019-06-20T08:11:13.089Z,21.00
2019-06-20T08:13:57.624Z,21.20
2019-06-20T08:16:42.572Z,21.20
2019-06-20T08:19:28.057Z,21.10
2019-06-20T08:22:13.357Z,21.20
2019-06-20T08:24:59.408Z,21.40
2019-06-20T08:27:51.830Z,21.70
2019-06-20T08:30:37.722Z,21.70
2019-06-20T08:33:23.025Z,21.70
2019-06-20T08:36:11.046Z,21.40
2019-06-20T08:38:57.438Z,21.20
2019-06-20T08:41:42.841Z,21.10
2019-06-20T08:44:28.218Z,21.00
2019-06-20T08:47:13.240Z,21.00
2019-06-20T08:49:58.434Z,21.10
2019-06-20T08:52:44.976Z,21.20
2019-06-20T08:55:30.584Z,21.40
2019-06-20T08:58:15.986Z,21.50
2019-06-20T09:03:47.693Z,21.80
2019-06-20T09:06:32.990Z,22.10
2019-06-20T09:09:17.748Z,22.10
2019-06-20T09:12:04.989Z,22.00
2019-06-20T09:14:50.160Z,21.90
2019-06-20T09:17:35.208Z,22.20
2019-06-20T09:20:20.431Z,22.40
2019-06-20T09:23:05.729Z,22.40
2019-06-20T09:25:50.946Z,22.20
2019-06-20T09:28:37.548Z,22.00
2019-06-20T09:31:23.728Z,21.90
2019-06-20T09:34:08.529Z,21.90
2019-06-20T09:36:53.677Z,21.80
2019-06-20T09:39:39.890Z,21.70
2019-06-20T09:42:24.721Z,21.80
2019-06-20T09:45:11.620Z,21.90
2019-06-20T09:47:56.572Z,22.00
2019-06-20T09:50:41.962Z,22.10
2019-06-20T09:53:27.225Z,22.20
2019-06-20T09:56:12.259Z,22.30
2019-06-20T09:58:58.298Z,22.50
2019-06-20T10:01:43.520Z,22.70
2019-06-20T10:04:28.599Z,22.80
2019-06-20T10:07:13.312Z,23.00
2019-06-20T10:09:58.790Z,23.10
2019-06-20T10:12:45.219Z,23.00
2019-06-20T10:15:32.794Z,23.10
2019-06-20T10:18:18.022Z,23.30
2019-06-20T10:21:04.683Z,23.50
2019-06-20T10:23:49.727Z,23.60
2019-06-20T10:26:37.786Z,23.70
2019-06-20T10:29:23.249Z,23.70
2019-06-20T10:32:08.191Z,23.70
2019-06-20T10:34:53.297Z,23.60
2019-06-20T10:37:38.283Z,23.60
2019-06-20T10:40:23.391Z,23.70
2019-06-20T10:43:08.439Z,23.60
2019-06-20T10:45:53.183Z,23.60
2019-06-20T10:48:38.408Z,23.80
2019-06-20T10:51:34.095Z,23.90
2019-06-20T10:54:18.928Z,23.80
2019-06-20T10:57:04.000Z,23.60
2019-06-20T10:59:50.862Z,23.50
2019-06-20T11:02:35.923Z,23.30
2019-06-20T11:05:21.252Z,23.20
2019-06-20T11:08:06.399Z,23.10
2019-06-20T11:10:51.829Z,23.10
2019-06-20T11:13:38.984Z,23.00
2019-06-20T11:16:23.799Z,23.00
2019-06-20T11:19:09.227Z,23.00
2019-06-20T11:21:54.594Z,22.90
2019-06-20T11:24:40.937Z,22.90
2019-06-20T11:27:26.203Z,22.80
2019-06-20T11:30:26.177Z,22.70
2019-06-20T11:33:11.210Z,22.70
2019-06-20T11:35:55.988Z,22.60
2019-06-20T11:38:42.472Z,22.60
2019-06-20T11:41:27.600Z,22.70
2019-06-20T11:44:12.751Z,22.80
2019-06-20T11:46:57.703Z,22.90
2019-06-20T11:49:43.097Z,23.20
2019-06-20T11:52:28.738Z,23.70
2019-06-20T11:55:14.210Z,24.00
2019-06-20T11:57:59.372Z,24.30
2019-06-20T12:00:44.207Z,24.70
2019-06-20T12:03:29.353Z,24.80
2019-06-20T12:06:14.622Z,24.90
2019-06-20T12:08:59.397Z,24.90
2019-06-20T12:11:46.662Z,24.80
2019-06-20T12:14:32.064Z,24.70
2019-06-20T12:17:17.336Z,24.60
2019-06-20T12:20:04.456Z,24.80
2019-06-20T12:22:50.811Z,25.00
2019-06-20T12:25:39.078Z,25.20
2019-06-20T12:28:23.202Z,25.00
2019-06-20T12:31:18.980Z,24.90
2019-06-20T12:33:55.510Z,24.70
2019-06-20T12:36:40.957Z,24.70
2019-06-20T12:39:26.980Z,25.00
2019-06-20T12:42:13.176Z,25.30
2019-06-20T12:44:58.521Z,25.50
2019-06-20T12:47:43.972Z,25.50
2019-06-20T12:50:29.240Z,25.50
2019-06-20T12:53:14.256Z,25.60
2019-06-20T12:55:59.732Z,26.10
2019-06-20T12:58:46.578Z,26.70
2019-06-20T13:01:38.937Z,27.70
2019-06-20T13:04:18.563Z,29.00
2019-06-20T13:07:03.523Z,29.80
2019-06-20T13:09:49.029Z,29.50
2019-06-20T13:12:34.366Z,29.30
2019-06-20T13:15:19.726Z,28.90
2019-06-20T13:18:04.937Z,28.20
2019-06-20T13:20:49.944Z,27.70
2019-06-20T13:23:35.380Z,27.80
2019-06-20T13:26:20.317Z,28.60
2019-06-20T13:29:05.627Z,29.50
2019-06-20T13:32:02.071Z,29.60
2019-06-20T13:34:39.408Z,29.10
2019-06-20T13:37:24.795Z,28.80
2019-06-20T13:40:10.676Z,28.00
2019-06-20T13:42:55.952Z,27.80
2019-06-20T13:45:42.288Z,27.50
2019-06-20T13:48:27.416Z,27.10
2019-06-20T13:51:12.896Z,26.60
2019-06-20T13:53:57.984Z,26.80
2019-06-20T13:56:43.706Z,27.20
2019-06-20T13:59:30.106Z,27.50
2019-06-20T14:02:15.022Z,27.60
2019-06-20T14:05:00.586Z,27.80
2019-06-20T14:07:51.927Z,27.90
2019-06-20T14:10:35.517Z,28.40
2019-06-20T14:13:21.186Z,28.70
2019-06-20T14:16:06.733Z,29.10
2019-06-20T14:18:51.917Z,28.90
2019-06-20T14:21:37.389Z,28.40
2019-06-20T14:24:22.796Z,28.20
2019-06-20T14:27:08.148Z,28.30
2019-06-20T14:29:53.628Z,28.60
2019-06-20T14:32:39.096Z,28.60
2019-06-20T14:35:24.557Z,28.50
2019-06-20T14:38:09.928Z,28.20
2019-06-20T14:40:55.461Z,27.80
2019-06-20T14:43:40.280Z,27.70
2019-06-20T14:46:27.328Z,27.60
2019-06-20T14:49:12.521Z,27.30
2019-06-20T14:51:57.672Z,27.00
2019-06-20T14:54:44.146Z,26.70
2019-06-20T14:57:30.195Z,26.50
2019-06-20T15:00:16.228Z,26.60
2019-06-20T15:03:01.222Z,26.90
2019-06-20T15:05:47.094Z,27.10
2019-06-20T15:08:33.543Z,27.20
2019-06-20T15:11:18.578Z,26.80
2019-06-20T15:14:03.957Z,26.50
2019-06-20T15:16:49.510Z,26.30
2019-06-20T15:19:34.709Z,26.00
2019-06-20T15:22:20.040Z,25.90
2019-06-20T15:25:06.125Z,25.90
2019-06-20T15:27:53.220Z,25.90
2019-06-20T15:30:37.947Z,25.80
2019-06-20T15:33:23.318Z,25.80
2019-06-20T15:36:09.035Z,25.70
2019-06-20T15:38:55.096Z,25.60
2019-06-20T15:41:40.703Z,25.40
2019-06-20T15:44:25.517Z,25.20
2019-06-20T15:47:10.963Z,25.10
2019-06-20T15:49:56.580Z,24.90
2019-06-20T15:52:41.997Z,24.70
2019-06-20T15:55:27.260Z,24.50
2019-06-20T15:58:12.220Z,24.40
2019-06-20T16:00:57.631Z,24.20
2019-06-20T16:03:42.589Z,24.10
2019-06-20T16:06:27.910Z,23.90
2019-06-20T16:09:12.957Z,23.80
2019-06-20T16:11:58.526Z,23.60
2019-06-20T16:14:43.853Z,23.50
2019-06-20T16:17:29.063Z,23.40
2019-06-20T16:20:14.939Z,23.20
2019-06-20T16:23:00.004Z,23.20
2019-06-20T16:25:44.668Z,23.10
2019-06-20T16:28:29.848Z,23.00
2019-06-20T16:31:26.297Z,22.80
2019-06-20T16:34:02.151Z,22.80
2019-06-20T16:36:47.206Z,22.70
2019-06-20T16:39:32.449Z,22.60
2019-06-20T16:42:19.485Z,22.60
2019-06-20T16:45:06.957Z,22.60
2019-06-20T16:47:51.796Z,22.60
2019-06-20T16:50:36.945Z,22.50
2019-06-20T16:53:21.834Z,22.50
2019-06-20T16:56:07.296Z,22.40
2019-06-20T16:58:51.975Z,22.30
2019-06-20T17:01:37.115Z,22.30
2019-06-20T17:04:22.114Z,22.30
2019-06-20T17:07:07.285Z,22.20
2019-06-20T17:09:52.219Z,22.20
2019-06-20T17:12:59.055Z,22.20
2019-06-20T17:15:44.618Z,22.20
2019-06-20T17:18:30.075Z,22.20
2019-06-20T17:21:14.960Z,22.20
2019-06-20T17:24:00.289Z,22.10
2019-06-20T17:26:45.103Z,22.20
2019-06-20T17:29:30.841Z,22.20
2019-06-20T17:32:15.895Z,22.10
2019-06-20T17:35:01.449Z,22.00
2019-06-20T17:37:46.817Z,22.00
2019-06-20T17:40:32.296Z,22.00
2019-06-20T17:43:17.256Z,21.90
2019-06-20T17:46:03.830Z,21.90
2019-06-20T17:48:48.860Z,21.80
2019-06-20T17:51:33.764Z,21.80
2019-06-20T17:54:18.713Z,21.80
2019-06-20T17:57:04.054Z,21.70
2019-06-20T17:59:48.818Z,21.70
2019-06-20T18:02:33.798Z,21.70
2019-06-20T18:05:18.768Z,21.70
2019-06-20T18:08:14.496Z,21.60
2019-06-20T18:10:51.778Z,21.60
2019-06-20T18:13:36.708Z,21.50
2019-06-20T18:16:25.418Z,21.40
2019-06-20T18:19:10.107Z,21.30
2019-06-20T18:21:55.362Z,21.30
2019-06-20T18:24:40.261Z,21.10
2019-06-20T18:27:25.240Z,21.10
2019-06-20T18:30:12.275Z,21.10
2019-06-20T18:32:57.693Z,21.00
2019-06-20T18:35:42.830Z,21.00
2019-06-20T18:38:28.341Z,20.90
2019-06-20T18:41:13.771Z,20.80
2019-06-20T18:44:18.818Z,20.70
2019-06-20T18:47:04.497Z,20.60
2019-06-20T18:49:49.260Z,20.50
2019-06-20T18:52:50.543Z,20.40
2019-06-20T18:55:22.176Z,20.30
2019-06-20T18:58:07.555Z,20.30
2019-06-20T19:00:52.543Z,20.20
2019-06-20T19:03:38.005Z,20.20
2019-06-20T19:06:35.586Z,20.10
2019-06-20T19:09:10.155Z,20.00
2019-06-20T19:11:55.061Z,20.00
2019-06-20T19:14:40.412Z,19.90
2019-06-20T19:17:25.910Z,19.80
2019-06-20T19:20:11.650Z,19.80
2019-06-20T19:22:56.918Z,19.70
2019-06-20T19:25:41.907Z,19.70
2019-06-20T19:28:27.428Z,19.70
2019-06-20T19:31:12.259Z,19.60
2019-06-20T19:33:57.585Z,19.60
2019-06-20T19:36:42.294Z,19.60
2019-06-20T19:39:27.274Z,19.50
2019-06-20T19:42:12.777Z,19.50
2019-06-20T19:44:58.035Z,19.50
2019-06-20T19:47:44.218Z,19.50
2019-06-20T19:50:29.457Z,19.50
2019-06-20T19:53:15.092Z,19.50
2019-06-20T19:56:00.686Z,19.40
2019-06-20T19:58:45.769Z,19.40
2019-06-20T20:01:30.931Z,19.40
2019-06-20T20:04:16.316Z,19.40
2019-06-20T20:07:02.359Z,19.40
2019-06-20T20:09:47.603Z,19.30
2019-06-20T20:12:32.547Z,19.30
2019-06-20T20:15:19.685Z,19.20
2019-06-20T20:18:04.610Z,19.20
2019-06-20T20:20:51.590Z,19.10
2019-06-20T20:23:36.811Z,19.10
2019-06-20T20:26:21.929Z,19.10
2019-06-20T20:29:09.115Z,19.10
2019-06-20T20:31:54.347Z,19.10
2019-06-20T20:34:39.390Z,19.00
2019-06-20T20:37:25.839Z,19.00
2019-06-20T20:40:11.624Z,19.00
2019-06-20T20:42:57.149Z,19.00
2019-06-20T20:45:42.888Z,18.90
2019-06-20T20:48:27.681Z,18.90
2019-06-20T20:51:12.700Z,18.90
2019-06-20T20:53:59.039Z,18.80
2019-06-20T20:56:44.133Z,18.80
2019-06-20T20:59:28.989Z,18.80
2019-06-20T21:02:14.401Z,18.80
2019-06-20T21:04:58.974Z,18.80
2019-06-20T21:07:44.105Z,18.80
2019-06-20T21:10:29.280Z,18.80
2019-06-20T21:13:14.213Z,18.70
2019-06-20T21:15:59.819Z,18.60
2019-06-20T21:18:46.622Z,18.60
2019-06-20T21:21:31.692Z,18.50
2019-06-20T21:24:16.842Z,18.50
2019-06-20T21:27:01.636Z,18.50
2019-06-20T21:29:46.410Z,18.50
2019-06-20T21:32:31.536Z,18.40
2019-06-20T21:35:16.944Z,18.40
2019-06-20T21:38:02.018Z,18.30
2019-06-20T21:40:47.473Z,18.40
2019-06-20T21:43:32.330Z,18.40
2019-06-20T21:46:18.435Z,18.40
2019-06-20T21:49:03.763Z,18.40
2019-06-20T21:51:48.970Z,18.30
2019-06-20T21:54:34.237Z,18.30
2019-06-20T21:57:19.255Z,18.20
2019-06-20T22:00:24.967Z,18.20
2019-06-20T22:03:10.151Z,18.20
2019-06-20T22:05:54.933Z,18.10
2019-06-20T22:08:40.009Z,18.00
2019-06-20T22:11:25.127Z,18.00
2019-06-20T22:14:09.918Z,17.90
2019-06-20T22:16:54.731Z,17.90
2019-06-20T22:19:39.687Z,17.90
2019-06-20T22:22:25.186Z,17.80
2019-06-20T22:25:10.728Z,17.80
2019-06-20T22:27:55.885Z,17.80
2019-06-20T22:30:54.678Z,17.70
2019-06-20T22:33:39.973Z,17.70
2019-06-20T22:36:39.126Z,17.60
2019-06-20T22:39:11.613Z,17.70
2019-06-20T22:41:56.528Z,17.60
2019-06-20T22:44:41.721Z,17.60
2019-06-20T22:47:26.741Z,17.60
2019-06-20T22:50:11.763Z,17.60
2019-06-20T22:52:56.757Z,17.50
2019-06-20T22:55:42.413Z,17.50
2019-06-20T22:58:27.506Z,17.50
2019-06-20T23:01:12.756Z,17.50
2019-06-20T23:03:58.163Z,17.40
2019-06-20T23:06:55.905Z,17.40
2019-06-20T23:09:29.858Z,17.50
2019-06-20T23:12:14.478Z,17.50
2019-06-20T23:14:59.533Z,17.40
2019-06-20T23:17:45.365Z,17.40
2019-06-20T23:20:30.509Z,17.40
2019-06-20T23:23:15.530Z,17.30
2019-06-20T23:26:02.187Z,17.30
2019-06-20T23:28:48.998Z,17.30
2019-06-20T23:31:33.890Z,17.30
2019-06-20T23:34:18.732Z,17.30
2019-06-20T23:37:12.643Z,17.30
2019-06-20T23:39:50.474Z,17.30
2019-06-20T23:42:37.511Z,17.40
2019-06-20T23:45:22.332Z,17.40
2019-06-20T23:48:07.962Z,17.30
2019-06-20T23:50:52.929Z,17.30
2019-06-20T23:53:37.512Z,17.30
2019-06-20T23:56:22.448Z,17.30
2019-06-20T23:59:07.082Z,17.30
